sensor_id;sensor_type;location;lat;lon;timestamp;P1;durP1;ratioP1;P2;durP2;ratioP2
10005;SDS011;5042;42.626;23.382;2022-12-24T00:00:56;10.13;;;6.23;;
10005;SDS011;5042;42.626;23.382;2022-12-24T00:03:23;8.77;;;6.20;;
10005;SDS011;5042;42.626;23.382;2022-12-24T00:05:51;9.30;;;5.50;;
10005;SDS011;5042;42.626;23.382;2022-12-24T00:08:18;9.43;;;6.53;;
10005;SDS011;5042;42.626;23.382;2022-12-24T00:10:47;8.37;;;5.60;;
10005;SDS011;5042;42.626;23.382;2022-12-24T00:13:15;10.70;;;5.83;;
10005;SDS011;5042;42.626;23.382;2022-12-24T00:15:42;8.30;;;6.03;;
10005;SDS011;5042;42.626;23.382;2022-12-24T00:18:09;8.43;;;5.90;;
10005;SDS011;5042;42.626;23.382;2022-12-24T00:20:36;9.77;;;5.70;;
10005;SDS011;5042;42.626;23.382;2022-12-24T00:23:04;7.63;;;5.60;;
10005;SDS011;5042;42.626;23.382;2022-12-24T00:25:31;8.63;;;5.70;;
10005;SDS011;5042;42.626;23.382;2022-12-24T00:27:57;9.00;;;5.87;;
10005;SDS011;5042;42.626;23.382;2022-12-24T00:30:24;9.33;;;5.90;;
10005;SDS011;5042;42.626;23.382;2022-12-24T00:32:51;8.80;;;5.87;;
10005;SDS011;5042;42.626;23.382;2022-12-24T00:35:17;7.73;;;5.73;;
10005;SDS011;5042;42.626;23.382;2022-12-24T00:37:46;9.47;;;5.80;;
10005;SDS011;5042;42.626;23.382;2022-12-24T00:40:14;8.37;;;5.53;;
10005;SDS011;5042;42.626;23.382;2022-12-24T00:42:41;7.23;;;5.60;;
10005;SDS011;5042;42.626;23.382;2022-12-24T00:45:08;9.23;;;6.03;;
10005;SDS011;5042;42.626;23.382;2022-12-24T00:47:36;9.53;;;5.73;;
10005;SDS011;5042;42.626;23.382;2022-12-24T00:50:03;8.50;;;5.50;;
10005;SDS011;5042;42.626;23.382;2022-12-24T00:52:31;11.10;;;6.03;;
10005;SDS011;5042;42.626;23.382;2022-12-24T00:54:58;7.83;;;5.50;;
10005;SDS011;5042;42.626;23.382;2022-12-24T00:57:26;6.57;;;5.23;;
10005;SDS011;5042;42.626;23.382;2022-12-24T00:59:53;9.63;;;5.73;;
10005;SDS011;5042;42.626;23.382;2022-12-24T01:02:20;6.80;;;4.97;;
10005;SDS011;5042;42.626;23.382;2022-12-24T01:04:47;6.37;;;4.87;;
10005;SDS011;5042;42.626;23.382;2022-12-24T01:07:46;7.33;;;5.13;;
10005;SDS011;5042;42.626;23.382;2022-12-24T01:10:13;7.20;;;5.50;;
10005;SDS011;5042;42.626;23.382;2022-12-24T01:12:43;8.20;;;6.20;;
10005;SDS011;5042;42.626;23.382;2022-12-24T01:15:11;9.57;;;6.10;;
10005;SDS011;5042;42.626;23.382;2022-12-24T01:17:39;11.47;;;7.70;;
10005;SDS011;5042;42.626;23.382;2022-12-24T01:20:07;11.33;;;7.43;;
10005;SDS011;5042;42.626;23.382;2022-12-24T01:22:36;12.87;;;7.80;;
10005;SDS011;5042;42.626;23.382;2022-12-24T01:25:03;12.33;;;8.97;;
10005;SDS011;5042;42.626;23.382;2022-12-24T01:27:31;13.10;;;9.37;;
10005;SDS011;5042;42.626;23.382;2022-12-24T01:29:59;11.93;;;8.37;;
10005;SDS011;5042;42.626;23.382;2022-12-24T01:32:26;13.83;;;8.30;;
10005;SDS011;5042;42.626;23.382;2022-12-24T01:34:53;11.03;;;7.47;;
10005;SDS011;5042;42.626;23.382;2022-12-24T01:37:19;14.70;;;8.80;;
10005;SDS011;5042;42.626;23.382;2022-12-24T01:39:46;12.00;;;8.37;;
10005;SDS011;5042;42.626;23.382;2022-12-24T01:42:17;13.43;;;8.43;;
10005;SDS011;5042;42.626;23.382;2022-12-24T01:48:12;15.23;;;8.70;;
10005;SDS011;5042;42.626;23.382;2022-12-24T01:50:42;12.27;;;8.73;;
10005;SDS011;5042;42.626;23.382;2022-12-24T01:53:09;13.47;;;8.47;;
10005;SDS011;5042;42.626;23.382;2022-12-24T01:55:38;14.37;;;7.73;;
10005;SDS011;5042;42.626;23.382;2022-12-24T01:58:05;12.33;;;7.17;;
10005;SDS011;5042;42.626;23.382;2022-12-24T02:00:33;12.80;;;7.83;;
10005;SDS011;5042;42.626;23.382;2022-12-24T02:03:01;12.63;;;7.33;;
10005;SDS011;5042;42.626;23.382;2022-12-24T02:05:30;12.10;;;7.33;;
10005;SDS011;5042;42.626;23.382;2022-12-24T02:08:00;11.23;;;7.43;;
10005;SDS011;5042;42.626;23.382;2022-12-24T02:10:29;14.63;;;8.50;;
10005;SDS011;5042;42.626;23.382;2022-12-24T02:12:56;12.03;;;7.77;;
10005;SDS011;5042;42.626;23.382;2022-12-24T02:15:25;11.70;;;7.50;;
10005;SDS011;5042;42.626;23.382;2022-12-24T02:17:56;14.97;;;8.20;;
10005;SDS011;5042;42.626;23.382;2022-12-24T02:20:42;12.07;;;6.50;;
10005;SDS011;5042;42.626;23.382;2022-12-24T02:23:27;10.00;;;6.33;;
10005;SDS011;5042;42.626;23.382;2022-12-24T02:26:14;11.80;;;7.03;;
10005;SDS011;5042;42.626;23.382;2022-12-24T02:28:58;11.27;;;6.90;;
10005;SDS011;5042;42.626;23.382;2022-12-24T02:31:41;13.30;;;7.60;;
10005;SDS011;5042;42.626;23.382;2022-12-24T02:34:13;11.33;;;6.47;;
10005;SDS011;5042;42.626;23.382;2022-12-24T02:36:45;12.77;;;6.40;;
10005;SDS011;5042;42.626;23.382;2022-12-24T02:39:19;12.77;;;7.03;;
10005;SDS011;5042;42.626;23.382;2022-12-24T02:41:52;11.97;;;7.20;;
10005;SDS011;5042;42.626;23.382;2022-12-24T02:44:33;10.10;;;6.50;;
10005;SDS011;5042;42.626;23.382;2022-12-24T02:47:05;15.10;;;7.60;;
10005;SDS011;5042;42.626;23.382;2022-12-24T02:49:33;14.37;;;7.80;;
10005;SDS011;5042;42.626;23.382;2022-12-24T02:52:00;17.63;;;8.27;;
10005;SDS011;5042;42.626;23.382;2022-12-24T02:54:27;14.43;;;7.57;;
10005;SDS011;5042;42.626;23.382;2022-12-24T02:56:58;14.43;;;8.03;;
10005;SDS011;5042;42.626;23.382;2022-12-24T02:59:46;18.17;;;8.43;;
10005;SDS011;5042;42.626;23.382;2022-12-24T03:02:27;17.83;;;8.50;;
10005;SDS011;5042;42.626;23.382;2022-12-24T03:05:08;23.83;;;9.70;;
10005;SDS011;5042;42.626;23.382;2022-12-24T03:07:44;18.03;;;8.17;;
10005;SDS011;5042;42.626;23.382;2022-12-24T03:10:23;17.10;;;8.83;;
10005;SDS011;5042;42.626;23.382;2022-12-24T03:12:57;15.27;;;7.30;;
10005;SDS011;5042;42.626;23.382;2022-12-24T03:15:28;15.37;;;7.73;;
10005;SDS011;5042;42.626;23.382;2022-12-24T03:17:59;17.10;;;7.67;;
10005;SDS011;5042;42.626;23.382;2022-12-24T03:20:29;15.47;;;7.20;;
10005;SDS011;5042;42.626;23.382;2022-12-24T03:23:00;11.03;;;6.00;;
10005;SDS011;5042;42.626;23.382;2022-12-24T03:25:27;10.30;;;6.43;;
10005;SDS011;5042;42.626;23.382;2022-12-24T03:27:54;12.47;;;7.03;;
10005;SDS011;5042;42.626;23.382;2022-12-24T03:30:22;14.80;;;7.20;;
10005;SDS011;5042;42.626;23.382;2022-12-24T03:32:49;12.47;;;6.80;;
10005;SDS011;5042;42.626;23.382;2022-12-24T03:35:18;7.70;;;5.20;;
10005;SDS011;5042;42.626;23.382;2022-12-24T03:37:45;9.50;;;5.80;;
10005;SDS011;5042;42.626;23.382;2022-12-24T03:40:11;10.67;;;6.43;;
10005;SDS011;5042;42.626;23.382;2022-12-24T03:42:38;7.10;;;3.93;;
10005;SDS011;5042;42.626;23.382;2022-12-24T03:45:05;9.60;;;6.17;;
10005;SDS011;5042;42.626;23.382;2022-12-24T03:47:33;7.83;;;4.97;;
10005;SDS011;5042;42.626;23.382;2022-12-24T03:50:00;6.60;;;4.97;;
10005;SDS011;5042;42.626;23.382;2022-12-24T03:52:28;8.43;;;5.47;;
10005;SDS011;5042;42.626;23.382;2022-12-24T03:54:55;6.33;;;4.20;;
10005;SDS011;5042;42.626;23.382;2022-12-24T03:57:21;5.37;;;4.23;;
10005;SDS011;5042;42.626;23.382;2022-12-24T03:59:48;9.00;;;6.23;;
10005;SDS011;5042;42.626;23.382;2022-12-24T04:02:15;9.53;;;6.77;;
10005;SDS011;5042;42.626;23.382;2022-12-24T04:04:41;11.30;;;6.40;;
10005;SDS011;5042;42.626;23.382;2022-12-24T04:07:08;10.40;;;7.43;;
10005;SDS011;5042;42.626;23.382;2022-12-24T04:09:36;10.90;;;7.47;;
10005;SDS011;5042;42.626;23.382;2022-12-24T04:12:04;9.03;;;6.83;;
10005;SDS011;5042;42.626;23.382;2022-12-24T04:14:31;9.57;;;6.67;;
10005;SDS011;5042;42.626;23.382;2022-12-24T04:16:58;9.10;;;6.43;;
10005;SDS011;5042;42.626;23.382;2022-12-24T04:19:25;9.77;;;6.60;;
10005;SDS011;5042;42.626;23.382;2022-12-24T04:21:52;10.10;;;6.33;;
10005;SDS011;5042;42.626;23.382;2022-12-24T04:24:18;9.53;;;5.87;;
10005;SDS011;5042;42.626;23.382;2022-12-24T04:26:46;8.90;;;5.60;;
10005;SDS011;5042;42.626;23.382;2022-12-24T04:29:13;8.60;;;6.23;;
10005;SDS011;5042;42.626;23.382;2022-12-24T04:31:40;10.47;;;6.43;;
10005;SDS011;5042;42.626;23.382;2022-12-24T04:34:07;10.73;;;6.43;;
10005;SDS011;5042;42.626;23.382;2022-12-24T04:36:33;8.03;;;5.80;;
10005;SDS011;5042;42.626;23.382;2022-12-24T04:39:00;7.37;;;5.70;;
10005;SDS011;5042;42.626;23.382;2022-12-24T04:41:27;10.40;;;6.80;;
10005;SDS011;5042;42.626;23.382;2022-12-24T04:43:55;9.70;;;6.53;;
10005;SDS011;5042;42.626;23.382;2022-12-24T04:46:22;10.93;;;7.30;;
10005;SDS011;5042;42.626;23.382;2022-12-24T04:48:51;10.47;;;7.10;;
10005;SDS011;5042;42.626;23.382;2022-12-24T04:51:19;14.40;;;7.67;;
10005;SDS011;5042;42.626;23.382;2022-12-24T04:53:46;11.77;;;7.73;;
10005;SDS011;5042;42.626;23.382;2022-12-24T04:56:14;9.73;;;7.17;;
10005;SDS011;5042;42.626;23.382;2022-12-24T04:58:42;13.67;;;7.50;;
10005;SDS011;5042;42.626;23.382;2022-12-24T05:01:11;12.60;;;7.37;;
10005;SDS011;5042;42.626;23.382;2022-12-24T05:03:39;11.57;;;7.17;;
10005;SDS011;5042;42.626;23.382;2022-12-24T05:06:07;10.33;;;6.77;;
10005;SDS011;5042;42.626;23.382;2022-12-24T05:08:36;9.57;;;7.07;;
10005;SDS011;5042;42.626;23.382;2022-12-24T05:11:03;8.80;;;6.37;;
10005;SDS011;5042;42.626;23.382;2022-12-24T05:13:31;11.43;;;6.70;;
10005;SDS011;5042;42.626;23.382;2022-12-24T05:15:58;8.43;;;6.13;;
10005;SDS011;5042;42.626;23.382;2022-12-24T05:18:26;9.57;;;5.77;;
10005;SDS011;5042;42.626;23.382;2022-12-24T05:20:53;8.93;;;5.27;;
10005;SDS011;5042;42.626;23.382;2022-12-24T05:23:21;8.07;;;5.67;;
10005;SDS011;5042;42.626;23.382;2022-12-24T05:26:14;8.03;;;5.40;;
10005;SDS011;5042;42.626;23.382;2022-12-24T05:28:49;7.80;;;5.30;;
10005;SDS011;5042;42.626;23.382;2022-12-24T05:31:16;9.10;;;5.40;;
10005;SDS011;5042;42.626;23.382;2022-12-24T05:33:45;5.57;;;4.87;;
10005;SDS011;5042;42.626;23.382;2022-12-24T05:36:12;8.63;;;5.53;;
10005;SDS011;5042;42.626;23.382;2022-12-24T05:38:39;6.87;;;4.87;;
10005;SDS011;5042;42.626;23.382;2022-12-24T05:41:06;5.93;;;4.50;;
10005;SDS011;5042;42.626;23.382;2022-12-24T05:43:34;6.47;;;4.60;;
10005;SDS011;5042;42.626;23.382;2022-12-24T05:46:02;6.00;;;4.30;;
10005;SDS011;5042;42.626;23.382;2022-12-24T05:48:31;6.40;;;4.43;;
10005;SDS011;5042;42.626;23.382;2022-12-24T05:51:02;6.60;;;4.47;;
10005;SDS011;5042;42.626;23.382;2022-12-24T05:53:30;7.57;;;4.57;;
10005;SDS011;5042;42.626;23.382;2022-12-24T05:56:01;7.77;;;4.70;;
10005;SDS011;5042;42.626;23.382;2022-12-24T05:58:29;7.40;;;4.93;;
10005;SDS011;5042;42.626;23.382;2022-12-24T06:00:55;6.07;;;4.70;;
10005;SDS011;5042;42.626;23.382;2022-12-24T06:03:22;5.57;;;4.57;;
10005;SDS011;5042;42.626;23.382;2022-12-24T06:05:56;8.33;;;4.50;;
10005;SDS011;5042;42.626;23.382;2022-12-24T06:08:25;7.90;;;5.00;;
10005;SDS011;5042;42.626;23.382;2022-12-24T06:10:53;7.00;;;5.00;;
10005;SDS011;5042;42.626;23.382;2022-12-24T06:13:21;7.80;;;5.33;;
10005;SDS011;5042;42.626;23.382;2022-12-24T06:15:47;6.77;;;4.90;;
10005;SDS011;5042;42.626;23.382;2022-12-24T06:18:14;9.10;;;4.80;;
10005;SDS011;5042;42.626;23.382;2022-12-24T06:20:41;6.07;;;4.07;;
10005;SDS011;5042;42.626;23.382;2022-12-24T06:23:08;6.80;;;4.90;;
10005;SDS011;5042;42.626;23.382;2022-12-24T06:25:36;6.33;;;4.63;;
10005;SDS011;5042;42.626;23.382;2022-12-24T06:28:02;6.90;;;4.87;;
10005;SDS011;5042;42.626;23.382;2022-12-24T06:30:29;7.27;;;5.20;;
10005;SDS011;5042;42.626;23.382;2022-12-24T06:32:56;6.93;;;4.97;;
10005;SDS011;5042;42.626;23.382;2022-12-24T06:35:23;7.27;;;5.03;;
10005;SDS011;5042;42.626;23.382;2022-12-24T06:37:50;6.70;;;5.27;;
10005;SDS011;5042;42.626;23.382;2022-12-24T06:40:17;6.53;;;5.40;;
10005;SDS011;5042;42.626;23.382;2022-12-24T06:42:45;7.10;;;5.57;;
10005;SDS011;5042;42.626;23.382;2022-12-24T06:45:11;6.47;;;5.37;;
10005;SDS011;5042;42.626;23.382;2022-12-24T06:47:38;9.17;;;5.50;;
10005;SDS011;5042;42.626;23.382;2022-12-24T06:50:05;9.13;;;5.87;;
10005;SDS011;5042;42.626;23.382;2022-12-24T06:52:33;7.93;;;5.43;;
10005;SDS011;5042;42.626;23.382;2022-12-24T06:54:59;9.90;;;5.60;;
10005;SDS011;5042;42.626;23.382;2022-12-24T06:57:26;8.67;;;6.07;;
10005;SDS011;5042;42.626;23.382;2022-12-24T06:59:54;9.30;;;6.20;;
10005;SDS011;5042;42.626;23.382;2022-12-24T07:02:21;8.27;;;6.47;;
10005;SDS011;5042;42.626;23.382;2022-12-24T07:04:48;8.60;;;6.43;;
10005;SDS011;5042;42.626;23.382;2022-12-24T07:07:15;10.97;;;6.90;;
10005;SDS011;5042;42.626;23.382;2022-12-24T07:09:41;8.83;;;6.33;;
10005;SDS011;5042;42.626;23.382;2022-12-24T07:12:08;11.53;;;7.47;;
10005;SDS011;5042;42.626;23.382;2022-12-24T07:14:35;11.93;;;8.37;;
10005;SDS011;5042;42.626;23.382;2022-12-24T07:17:03;14.10;;;9.03;;
10005;SDS011;5042;42.626;23.382;2022-12-24T07:19:30;13.10;;;8.67;;
10005;SDS011;5042;42.626;23.382;2022-12-24T07:21:58;11.90;;;8.67;;
10005;SDS011;5042;42.626;23.382;2022-12-24T07:24:25;9.73;;;7.43;;
10005;SDS011;5042;42.626;23.382;2022-12-24T07:26:51;11.33;;;7.40;;
10005;SDS011;5042;42.626;23.382;2022-12-24T07:29:18;11.70;;;7.10;;
10005;SDS011;5042;42.626;23.382;2022-12-24T07:31:45;8.43;;;6.50;;
10005;SDS011;5042;42.626;23.382;2022-12-24T07:34:14;9.83;;;5.80;;
10005;SDS011;5042;42.626;23.382;2022-12-24T07:36:41;8.40;;;5.30;;
10005;SDS011;5042;42.626;23.382;2022-12-24T07:39:07;7.17;;;5.27;;
10005;SDS011;5042;42.626;23.382;2022-12-24T07:41:34;7.87;;;5.00;;
10005;SDS011;5042;42.626;23.382;2022-12-24T07:44:01;6.90;;;5.30;;
10005;SDS011;5042;42.626;23.382;2022-12-24T07:46:28;8.50;;;4.87;;
10005;SDS011;5042;42.626;23.382;2022-12-24T07:48:54;7.70;;;5.30;;
10005;SDS011;5042;42.626;23.382;2022-12-24T07:51:23;6.90;;;5.00;;
10005;SDS011;5042;42.626;23.382;2022-12-24T07:53:49;6.30;;;5.07;;
10005;SDS011;5042;42.626;23.382;2022-12-24T07:56:16;8.37;;;5.73;;
10005;SDS011;5042;42.626;23.382;2022-12-24T07:58:43;5.83;;;4.90;;
10005;SDS011;5042;42.626;23.382;2022-12-24T08:01:10;7.87;;;5.80;;
10005;SDS011;5042;42.626;23.382;2022-12-24T08:03:37;7.57;;;5.33;;
10005;SDS011;5042;42.626;23.382;2022-12-24T08:06:04;8.60;;;5.10;;
10005;SDS011;5042;42.626;23.382;2022-12-24T08:08:32;7.53;;;5.57;;
10005;SDS011;5042;42.626;23.382;2022-12-24T08:10:59;6.40;;;5.37;;
10005;SDS011;5042;42.626;23.382;2022-12-24T08:13:28;7.73;;;5.23;;
10005;SDS011;5042;42.626;23.382;2022-12-24T08:15:55;9.33;;;6.50;;
10005;SDS011;5042;42.626;23.382;2022-12-24T08:18:21;9.03;;;6.00;;
10005;SDS011;5042;42.626;23.382;2022-12-24T08:20:48;9.97;;;6.47;;
10005;SDS011;5042;42.626;23.382;2022-12-24T08:23:15;9.97;;;6.90;;
10005;SDS011;5042;42.626;23.382;2022-12-24T08:25:44;8.77;;;6.50;;
10005;SDS011;5042;42.626;23.382;2022-12-24T08:28:12;8.10;;;6.27;;
10005;SDS011;5042;42.626;23.382;2022-12-24T08:30:41;8.60;;;6.40;;
10005;SDS011;5042;42.626;23.382;2022-12-24T08:33:10;9.97;;;6.97;;
10005;SDS011;5042;42.626;23.382;2022-12-24T08:35:36;14.53;;;9.80;;
10005;SDS011;5042;42.626;23.382;2022-12-24T08:38:03;11.93;;;7.60;;
10005;SDS011;5042;42.626;23.382;2022-12-24T08:40:30;10.80;;;7.10;;
10005;SDS011;5042;42.626;23.382;2022-12-24T08:42:58;10.57;;;7.23;;
10005;SDS011;5042;42.626;23.382;2022-12-24T08:45:26;11.03;;;7.83;;
10005;SDS011;5042;42.626;23.382;2022-12-24T08:47:53;12.07;;;7.47;;
10005;SDS011;5042;42.626;23.382;2022-12-24T08:50:20;11.63;;;7.60;;
10005;SDS011;5042;42.626;23.382;2022-12-24T08:52:47;13.10;;;7.97;;
10005;SDS011;5042;42.626;23.382;2022-12-24T08:55:13;11.00;;;7.87;;
10005;SDS011;5042;42.626;23.382;2022-12-24T08:57:40;10.27;;;8.00;;
10005;SDS011;5042;42.626;23.382;2022-12-24T09:00:10;12.93;;;8.10;;
10005;SDS011;5042;42.626;23.382;2022-12-24T09:02:39;13.30;;;9.23;;
10005;SDS011;5042;42.626;23.382;2022-12-24T09:05:06;17.97;;;9.23;;
10005;SDS011;5042;42.626;23.382;2022-12-24T09:07:33;15.40;;;10.53;;
10005;SDS011;5042;42.626;23.382;2022-12-24T09:10:00;15.90;;;10.23;;
10005;SDS011;5042;42.626;23.382;2022-12-24T09:12:26;15.87;;;10.27;;
10005;SDS011;5042;42.626;23.382;2022-12-24T09:14:53;19.20;;;12.27;;
10005;SDS011;5042;42.626;23.382;2022-12-24T09:17:22;16.67;;;11.87;;
10005;SDS011;5042;42.626;23.382;2022-12-24T09:19:48;14.43;;;11.17;;
10005;SDS011;5042;42.626;23.382;2022-12-24T09:22:15;19.77;;;12.23;;
10005;SDS011;5042;42.626;23.382;2022-12-24T09:24:42;15.37;;;10.83;;
10005;SDS011;5042;42.626;23.382;2022-12-24T09:27:09;15.13;;;10.63;;
10005;SDS011;5042;42.626;23.382;2022-12-24T09:29:36;13.73;;;9.20;;
10005;SDS011;5042;42.626;23.382;2022-12-24T09:32:04;15.93;;;10.03;;
10005;SDS011;5042;42.626;23.382;2022-12-24T09:34:32;18.60;;;10.60;;
10005;SDS011;5042;42.626;23.382;2022-12-24T09:36:59;15.40;;;10.30;;
10005;SDS011;5042;42.626;23.382;2022-12-24T09:39:27;17.27;;;11.43;;
10005;SDS011;5042;42.626;23.382;2022-12-24T09:41:55;18.60;;;12.53;;
10005;SDS011;5042;42.626;23.382;2022-12-24T09:44:34;22.90;;;15.10;;
10005;SDS011;5042;42.626;23.382;2022-12-24T09:47:08;21.80;;;13.70;;
10005;SDS011;5042;42.626;23.382;2022-12-24T09:49:44;24.10;;;16.37;;
10005;SDS011;5042;42.626;23.382;2022-12-24T09:52:17;27.80;;;17.73;;
10005;SDS011;5042;42.626;23.382;2022-12-24T09:54:55;28.27;;;17.93;;
10005;SDS011;5042;42.626;23.382;2022-12-24T09:57:28;26.23;;;17.47;;
10005;SDS011;5042;42.626;23.382;2022-12-24T09:59:59;27.17;;;17.13;;
10005;SDS011;5042;42.626;23.382;2022-12-24T10:02:27;30.03;;;18.53;;
10005;SDS011;5042;42.626;23.382;2022-12-24T10:04:56;28.07;;;17.57;;
10005;SDS011;5042;42.626;23.382;2022-12-24T10:07:28;25.20;;;17.50;;
10005;SDS011;5042;42.626;23.382;2022-12-24T10:10:06;28.53;;;19.40;;
10005;SDS011;5042;42.626;23.382;2022-12-24T10:12:44;28.97;;;17.90;;
10005;SDS011;5042;42.626;23.382;2022-12-24T10:15:19;27.40;;;19.73;;
10005;SDS011;5042;42.626;23.382;2022-12-24T10:17:57;35.57;;;21.90;;
10005;SDS011;5042;42.626;23.382;2022-12-24T10:20:37;38.73;;;22.57;;
10005;SDS011;5042;42.626;23.382;2022-12-24T10:23:12;41.50;;;25.83;;
10005;SDS011;5042;42.626;23.382;2022-12-24T10:25:47;48.90;;;28.77;;
10005;SDS011;5042;42.626;23.382;2022-12-24T10:28:20;48.47;;;27.67;;
10005;SDS011;5042;42.626;23.382;2022-12-24T10:30:49;50.40;;;29.83;;
10005;SDS011;5042;42.626;23.382;2022-12-24T10:33:23;51.43;;;29.17;;
10005;SDS011;5042;42.626;23.382;2022-12-24T10:35:59;50.47;;;29.10;;
10005;SDS011;5042;42.626;23.382;2022-12-24T10:38:26;48.60;;;29.17;;
10005;SDS011;5042;42.626;23.382;2022-12-24T10:40:55;42.93;;;26.43;;
10005;SDS011;5042;42.626;23.382;2022-12-24T10:43:28;46.17;;;26.33;;
10005;SDS011;5042;42.626;23.382;2022-12-24T10:45:55;48.73;;;27.97;;
10005;SDS011;5042;42.626;23.382;2022-12-24T10:48:27;44.10;;;26.03;;
10005;SDS011;5042;42.626;23.382;2022-12-24T10:50:58;45.07;;;26.80;;
10005;SDS011;5042;42.626;23.382;2022-12-24T10:53:31;38.80;;;23.53;;
10005;SDS011;5042;42.626;23.382;2022-12-24T10:56:06;36.90;;;22.80;;
10005;SDS011;5042;42.626;23.382;2022-12-24T10:58:34;37.53;;;23.37;;
10005;SDS011;5042;42.626;23.382;2022-12-24T11:01:02;36.27;;;22.07;;
10005;SDS011;5042;42.626;23.382;2022-12-24T11:03:30;32.77;;;21.97;;
10005;SDS011;5042;42.626;23.382;2022-12-24T11:05:59;32.73;;;21.37;;
10005;SDS011;5042;42.626;23.382;2022-12-24T11:08:30;33.07;;;20.90;;
10005;SDS011;5042;42.626;23.382;2022-12-24T11:10:58;35.53;;;19.97;;
10005;SDS011;5042;42.626;23.382;2022-12-24T11:13:27;33.50;;;19.33;;
10005;SDS011;5042;42.626;23.382;2022-12-24T11:15:59;35.07;;;20.17;;
10005;SDS011;5042;42.626;23.382;2022-12-24T11:18:30;32.70;;;19.30;;
10005;SDS011;5042;42.626;23.382;2022-12-24T11:20:58;29.53;;;19.87;;
10005;SDS011;5042;42.626;23.382;2022-12-24T11:23:27;30.43;;;19.27;;
10005;SDS011;5042;42.626;23.382;2022-12-24T11:25:54;32.87;;;19.67;;
10005;SDS011;5042;42.626;23.382;2022-12-24T11:28:23;32.20;;;19.57;;
10005;SDS011;5042;42.626;23.382;2022-12-24T11:30:54;34.67;;;20.20;;
10005;SDS011;5042;42.626;23.382;2022-12-24T11:33:24;29.30;;;19.83;;
10005;SDS011;5042;42.626;23.382;2022-12-24T11:35:56;30.17;;;19.60;;
10005;SDS011;5042;42.626;23.382;2022-12-24T11:38:28;32.73;;;20.27;;
10005;SDS011;5042;42.626;23.382;2022-12-24T11:40:58;33.37;;;20.60;;
10005;SDS011;5042;42.626;23.382;2022-12-24T11:43:27;31.93;;;20.53;;
10005;SDS011;5042;42.626;23.382;2022-12-24T11:46:15;37.87;;;21.20;;
10005;SDS011;5042;42.626;23.382;2022-12-24T11:48:47;36.27;;;20.83;;
10005;SDS011;5042;42.626;23.382;2022-12-24T11:51:30;34.30;;;21.00;;
10005;SDS011;5042;42.626;23.382;2022-12-24T11:53:59;36.47;;;21.87;;
10005;SDS011;5042;42.626;23.382;2022-12-24T11:56:35;36.37;;;20.37;;
10005;SDS011;5042;42.626;23.382;2022-12-24T11:59:11;34.30;;;20.13;;
10005;SDS011;5042;42.626;23.382;2022-12-24T12:01:47;33.17;;;20.43;;
10005;SDS011;5042;42.626;23.382;2022-12-24T12:04:19;30.90;;;20.27;;
10005;SDS011;5042;42.626;23.382;2022-12-24T12:06:49;33.00;;;20.10;;
10005;SDS011;5042;42.626;23.382;2022-12-24T12:09:24;31.87;;;20.20;;
10005;SDS011;5042;42.626;23.382;2022-12-24T12:11:56;27.63;;;19.10;;
10005;SDS011;5042;42.626;23.382;2022-12-24T12:14:31;31.50;;;20.37;;
10005;SDS011;5042;42.626;23.382;2022-12-24T12:17:04;32.20;;;19.40;;
10005;SDS011;5042;42.626;23.382;2022-12-24T12:19:41;31.00;;;19.77;;
10005;SDS011;5042;42.626;23.382;2022-12-24T12:22:17;33.43;;;21.13;;
10005;SDS011;5042;42.626;23.382;2022-12-24T12:24:54;33.23;;;20.37;;
10005;SDS011;5042;42.626;23.382;2022-12-24T12:27:26;32.87;;;19.37;;
10005;SDS011;5042;42.626;23.382;2022-12-24T12:29:57;31.83;;;18.87;;
10005;SDS011;5042;42.626;23.382;2022-12-24T12:32:28;28.43;;;18.93;;
10005;SDS011;5042;42.626;23.382;2022-12-24T12:35:04;28.53;;;18.20;;
10005;SDS011;5042;42.626;23.382;2022-12-24T12:37:40;28.27;;;17.33;;
10005;SDS011;5042;42.626;23.382;2022-12-24T12:40:13;25.00;;;17.43;;
10005;SDS011;5042;42.626;23.382;2022-12-24T12:42:42;29.00;;;18.63;;
10005;SDS011;5042;42.626;23.382;2022-12-24T12:45:29;30.90;;;18.50;;
10005;SDS011;5042;42.626;23.382;2022-12-24T12:48:11;33.20;;;18.53;;
10005;SDS011;5042;42.626;23.382;2022-12-24T12:50:48;29.73;;;18.50;;
10005;SDS011;5042;42.626;23.382;2022-12-24T12:53:30;30.97;;;17.73;;
10005;SDS011;5042;42.626;23.382;2022-12-24T12:56:12;30.70;;;18.70;;
10005;SDS011;5042;42.626;23.382;2022-12-24T12:58:49;26.33;;;18.07;;
10005;SDS011;5042;42.626;23.382;2022-12-24T13:01:19;28.33;;;18.23;;
10005;SDS011;5042;42.626;23.382;2022-12-24T13:04:09;29.13;;;18.47;;
10005;SDS011;5042;42.626;23.382;2022-12-24T13:07:05;31.53;;;19.27;;
10005;SDS011;5042;42.626;23.382;2022-12-24T13:09:50;32.33;;;19.37;;
10005;SDS011;5042;42.626;23.382;2022-12-24T13:12:34;34.67;;;19.43;;
10005;SDS011;5042;42.626;23.382;2022-12-24T13:15:22;29.30;;;19.23;;
10005;SDS011;5042;42.626;23.382;2022-12-24T13:20:51;31.17;;;19.60;;
10005;SDS011;5042;42.626;23.382;2022-12-24T13:23:20;30.80;;;18.37;;
10005;SDS011;5042;42.626;23.382;2022-12-24T13:25:49;31.50;;;20.07;;
10005;SDS011;5042;42.626;23.382;2022-12-24T13:28:32;39.37;;;20.87;;
10005;SDS011;5042;42.626;23.382;2022-12-24T13:33:58;35.33;;;22.40;;
10005;SDS011;5042;42.626;23.382;2022-12-24T13:40:00;34.13;;;21.10;;
10005;SDS011;5042;42.626;23.382;2022-12-24T13:42:48;32.70;;;20.30;;
10005;SDS011;5042;42.626;23.382;2022-12-24T13:48:29;30.50;;;19.03;;
10005;SDS011;5042;42.626;23.382;2022-12-24T13:50:58;30.27;;;18.07;;
10005;SDS011;5042;42.626;23.382;2022-12-24T13:53:27;32.33;;;18.80;;
10005;SDS011;5042;42.626;23.382;2022-12-24T13:55:59;30.97;;;16.63;;
10005;SDS011;5042;42.626;23.382;2022-12-24T13:58:31;28.13;;;17.10;;
10005;SDS011;5042;42.626;23.382;2022-12-24T14:01:03;27.77;;;17.67;;
10005;SDS011;5042;42.626;23.382;2022-12-24T14:03:32;28.20;;;16.37;;
10005;SDS011;5042;42.626;23.382;2022-12-24T14:06:06;30.60;;;17.73;;
10005;SDS011;5042;42.626;23.382;2022-12-24T14:08:37;25.63;;;16.20;;
10005;SDS011;5042;42.626;23.382;2022-12-24T14:11:10;25.53;;;16.13;;
10005;SDS011;5042;42.626;23.382;2022-12-24T14:16:52;34.80;;;18.23;;
10005;SDS011;5042;42.626;23.382;2022-12-24T14:19:22;30.13;;;18.13;;
10005;SDS011;5042;42.626;23.382;2022-12-24T14:21:55;35.50;;;18.50;;
10005;SDS011;5042;42.626;23.382;2022-12-24T14:24:27;33.87;;;18.37;;
10005;SDS011;5042;42.626;23.382;2022-12-24T14:27:04;30.60;;;18.10;;
10005;SDS011;5042;42.626;23.382;2022-12-24T14:29:41;26.07;;;16.43;;
10005;SDS011;5042;42.626;23.382;2022-12-24T14:32:15;32.93;;;17.07;;
10005;SDS011;5042;42.626;23.382;2022-12-24T14:34:42;27.07;;;17.90;;
10005;SDS011;5042;42.626;23.382;2022-12-24T14:37:09;33.37;;;19.80;;
10005;SDS011;5042;42.626;23.382;2022-12-24T14:39:40;32.77;;;20.50;;
10005;SDS011;5042;42.626;23.382;2022-12-24T14:42:14;35.57;;;21.83;;
10005;SDS011;5042;42.626;23.382;2022-12-24T14:44:53;31.60;;;20.43;;
10005;SDS011;5042;42.626;23.382;2022-12-24T14:47:32;35.13;;;21.43;;
10005;SDS011;5042;42.626;23.382;2022-12-24T14:53:16;33.63;;;21.43;;
10005;SDS011;5042;42.626;23.382;2022-12-24T14:55:51;36.17;;;21.93;;
10005;SDS011;5042;42.626;23.382;2022-12-24T14:58:25;30.77;;;21.10;;
10005;SDS011;5042;42.626;23.382;2022-12-24T15:00:54;30.23;;;20.67;;
10005;SDS011;5042;42.626;23.382;2022-12-24T15:03:23;34.37;;;21.53;;
10005;SDS011;5042;42.626;23.382;2022-12-24T15:05:52;31.50;;;21.03;;
10005;SDS011;5042;42.626;23.382;2022-12-24T15:08:23;40.90;;;22.23;;
10005;SDS011;5042;42.626;23.382;2022-12-24T15:10:54;30.70;;;21.07;;
10005;SDS011;5042;42.626;23.382;2022-12-24T15:13:26;37.90;;;22.67;;